Historique des mesures à Cassis (13260), France
Quotidien Résumé Avril 24, 2019 Unités:  Métrique    US   Métrique/US
« Précédent (Jour)
Suivant (Jour) »
Quotidien Hebdomadaire Mensuel Annuel Période au choix
  Actuel: Maximum: Minimum: Moyenne:
Température: 15.6 °C TemperatureC °C 14.6 °C 15.2 °C
Point de rosée: 9.7 °C DewpointC °C 9.7 °C 11.7 °C
Humidité: 68 % Humidity % 65 % 75 %
Vitesse du vent: 9.8 km/h 0 km/h 0 km/h 7.4 km/h
Rafales: 9.8 km/h 0 km/h - -
Vent:NE - - South
Pression: 1009.1 hPa PressurehPa hPa 1000.7 hPa -
Précipitations: 5.6 mm      
Historical Graphs
 
 
Mesures pour : Avril 24, 2019
Heure Temperature Point de rosée Pression Vent Vitesse du vent Rafales Humidité Pluie (par heure) Conditions
TemperatureC °C DewpointC °C PressurehPa hPa Calm     Humidity % HourlyPrecipMM mm SoftwareType W/m2
00:10 15.3 °C 11.7 °C 1000.7 hPa ENE 5.1 km/h 9.8 km/h 79 % 0.0 mm open2300-1.11 W/m2
01:10 15.3 °C 11.7 °C 1001.1 hPa SSE 14 km/h 14 km/h 79 % 0.0 mm open2300-1.11 W/m2
02:10 15.2 °C 11.8 °C 1001.0 hPa SSE 12.2 km/h 12.2 km/h 80 % 0.0 mm open2300-1.11 W/m2
03:10 15.1 °C 12.1 °C 1000.8 hPa Calm   10.9 km/h 82 % 0.0 mm open2300-1.11 W/m2
04:10 15.3 °C 12.4 °C 1001.4 hPa SW 7.6 km/h 7.6 km/h 83 % 0.0 mm open2300-1.11 W/m2
05:10 15.4 °C 12.7 °C 1001.6 hPa West 14 km/h 14 km/h 84 % 0.0 mm open2300-1.11 W/m2
06:10 15.4 °C 12.6 °C 1002.0 hPa WSW 4.7 km/h 10.9 km/h 83 % 0.0 mm open2300-1.11 W/m2
07:10 15.5 °C 12.4 °C 1002.7 hPa South 9.3 km/h 9.3 km/h 82 % 0.0 mm open2300-1.11 W/m2
08:10 14.8 °C 12.3 °C 1003.5 hPa NNW 4.7 km/h 10.3 km/h 85 % 0.0 mm open2300-1.11 W/m2
09:10 14.8 °C 11.9 °C 1004.3 hPa NNW 6.4 km/h 6.4 km/h 83 % 0.0 mm open2300-1.11 W/m2
10:10 14.9 °C 12.1 °C 1004.6 hPa NW 5.6 km/h 10.3 km/h 83 % 0.0 mm open2300-1.11 W/m2
11:10 14.6 °C 12.3 °C 1005.1 hPa NE 6.4 km/h 6.9 km/h 86 % 5.1 mm open2300-1.11 W/m2
12:10 15.0 °C 12.8 °C 1005.6 hPa SSW 5.1 km/h 9.3 km/h 87 % 0.0 mm open2300-1.11 W/m2
13:10 16.4 °C 13.9 °C 1006.6 hPa SSE 4.2 km/h 11.6 km/h 85 % 0.0 mm open2300-1.11 W/m2
14:10 17.6 °C 14.1 °C 1007.3 hPa WSW 23.8 km/h 23.8 km/h 80 % 0.0 mm open2300-1.11 W/m2
15:10 18.1 °C 13.8 °C 1008.0 hPa East 10.9 km/h 10.9 km/h 76 % 0.0 mm open2300-1.11 W/m2
16:10 18.5 °C 13.3 °C 1008.0 hPa SSW 6.4 km/h 6.4 km/h 72 % 0.0 mm open2300-1.11 W/m2
17:10 17.8 °C 11.6 °C 1008.3 hPa South 2.9 km/h 2.9 km/h 67 % 0.0 mm open2300-1.11 W/m2
18:10 17.9 °C 11.2 °C 1008.0 hPa East 4.2 km/h 6.9 km/h 65 % 0.0 mm open2300-1.11 W/m2
19:10 16.9 °C 10.5 °C 1008.4 hPa ESE 5.1 km/h 7.6 km/h 66 % 0.0 mm open2300-1.11 W/m2
20:10 15.6 °C 9.7 °C 1009.1 hPa NE 9.8 km/h 9.8 km/h 68 % 0.0 mm open2300-1.11 W/m2
Observations météo à CASSIS
WU-History script by Weather Underground - 1 mb